Time;durP1;ratioP1;P1;durP2;ratioP2;P2;SDS_P1;SDS_P2;PMS_P1;PMS_P2;Temp;Humidity;BMP_temperature;BMP_pressure;BME280_temperature;BME280_humidity;BME280_pressure;Samples;Min_cycle;Max_cycle;Signal;HPM_P1;HPM_P2
2023/10/11 00:00:53;;;;;;;11.75;4.03;;;;;;;16.74;90.18;101531.78;4975893;28;100948;-27
2023/10/11 00:03:17;;;;;;;13.43;4.40;;;;;;;16.71;90.73;101516.47;4976904;28;96843;-28
2023/10/11 00:05:44;;;;;;;14.55;4.85;;;;;;;16.76;90.18;101532.53;4977894;28;96719;-28
2023/10/11 00:08:13;;;;;;;9.82;4.60;;;;;;;16.75;90.14;101517.09;4975792;28;100870;-29
2023/10/11 00:10:47;;;;;;;9.80;3.97;;;;;;;16.80;90.22;101527.72;4975629;28;100997;-28
2023/10/11 00:13:17;;;;;;;7.78;3.95;;;;;;;16.79;90.59;101528.72;4976901;28;96622;-27
2023/10/11 00:15:48;;;;;;;9.48;4.00;;;;;;;16.75;90.80;101517.09;4977116;28;96811;-27
2023/10/11 00:18:16;;;;;;;11.35;3.90;;;;;;;16.75;90.59;101517.97;4975471;28;100999;-29
2023/10/11 00:23:07;;;;;;;6.53;3.40;;;;;;;16.76;90.58;101525.19;4977316;28;96608;-27
2023/10/11 00:25:33;;;;;;;8.48;3.58;;;;;;;16.77;90.59;101521.47;4976837;28;96894;-28
2023/10/11 00:27:58;;;;;;;9.77;3.65;;;;;;;16.72;90.32;101512.72;4976893;28;98094;-28
2023/10/11 00:30:30;;;;;;;15.65;4.38;;;;;;;16.73;90.37;101516.34;4977112;28;99088;-27
2023/10/11 00:32:58;;;;;;;;;;;;;;;16.72;90.87;101522.81;4975894;28;96699;-28
2023/10/11 00:35:27;;;;;;;7.18;3.22;;;;;;;16.71;90.94;101515.63;4975943;28;96832;-27
2023/10/11 00:37:53;;;;;;;8.85;3.72;;;;;;;16.71;90.48;101512.88;4975274;28;100078;-28
2023/10/11 00:40:25;;;;;;;9.45;3.80;;;;;;;16.65;90.53;101507.84;4975233;28;99046;-27
2023/10/11 00:42:53;;;;;;;8.20;3.33;;;;;;;16.68;90.42;101521.28;4975504;28;96646;-27
2023/10/11 00:45:22;;;;;;;7.57;3.50;;;;;;;16.64;91.30;101514.34;4974531;28;96831;-28
2023/10/11 00:47:51;;;;;;;6.80;3.53;;;;;;;16.63;91.11;101513.44;4974990;28;100829;-27
2023/10/11 00:50:16;;;;;;;6.18;3.42;;;;;;;16.67;91.31;101514.97;4975125;28;100675;-28
2023/10/11 00:52:43;;;;;;;9.07;3.58;;;;;;;16.66;91.76;101509.59;4976742;28;96621;-28
2023/10/11 00:55:23;;;;;;;6.60;3.50;;;;;;;16.62;91.18;101502.63;4975716;28;96869;-27
2023/10/11 00:57:53;;;;;;;9.48;3.70;;;;;;;16.55;90.98;101492.16;4974920;28;101545;-28
2023/10/11 01:00:23;;;;;;;9.68;4.78;;;;;;;16.65;91.02;101503.25;4976180;28;99370;-27
2023/10/11 01:02:54;;;;;;;7.75;3.83;;;;;;;16.59;91.87;101494.63;4974740;28;96555;-28
2023/10/11 01:05:20;;;;;;;9.73;3.85;;;;;;;16.59;91.98;101490.06;4976342;28;96679;-28
2023/10/11 01:07:46;;;;;;;11.55;4.13;;;;;;;16.56;91.32;101493.91;4974695;28;101211;-28
2023/10/11 01:10:12;;;;;;;8.90;3.47;;;;;;;16.55;91.77;101489.41;4974692;28;100733;-29
2023/10/11 01:12:41;;;;;;;8.18;3.97;;;;;;;16.53;92.48;101485.06;4974682;28;96860;-28
2023/10/11 01:15:11;;;;;;;12.18;3.85;;;;;;;16.59;91.88;101492.81;4976428;28;96749;-28
2023/10/11 01:17:38;;;;;;;11.25;4.22;;;;;;;16.56;91.30;101473.88;4975907;28;99310;-27
2023/10/11 01:20:13;;;;;;;8.20;4.25;;;;;;;16.61;91.66;101484.47;4974847;28;100564;-27
2023/10/11 01:22:40;;;;;;;11.23;4.47;;;;;;;16.60;91.16;101485.47;4976240;28;96655;-27
2023/10/11 01:25:06;;;;;;;17.20;5.13;;;;;;;16.52;91.62;101481.44;4974647;28;96860;-28
2023/10/11 01:27:31;;;;;;;11.88;4.75;;;;;;;16.51;91.70;101482.44;4975140;28;99345;-27
2023/10/11 01:30:00;;;;;;;9.63;4.68;;;;;;;16.45;92.33;101473.84;4975917;28;99108;-27
2023/10/11 01:32:25;;;;;;;9.88;4.45;;;;;;;16.48;92.12;101477.19;4975864;28;96603;-28
2023/10/11 01:34:51;;;;;;;9.95;4.10;;;;;;;16.46;91.59;101470.97;4976228;28;96754;-27
2023/10/11 01:37:20;;;;;;;9.63;4.15;;;;;;;16.46;91.92;101473.69;4974284;28;100974;-28
2023/10/11 01:39:45;;;;;;;10.73;4.80;;;;;;;16.46;92.16;101470.97;4974180;28;100810;-27
2023/10/11 01:42:10;;;;;;;13.45;5.40;;;;;;;16.45;91.88;101463.78;4975765;28;96686;-28
2023/10/11 01:44:38;;;;;;;8.88;4.20;;;;;;;16.45;91.48;101460.16;4975488;28;96812;-28
2023/10/11 01:47:05;;;;;;;10.48;4.63;;;;;;;16.37;91.82;101447.06;4975293;28;99546;-27
2023/10/11 01:49:37;;;;;;;11.50;5.20;;;;;;;16.38;91.51;101459.75;4974251;28;99701;-27
2023/10/11 01:52:06;;;;;;;10.52;4.07;;;;;;;16.38;91.52;101462.50;4975161;28;96810;-27
2023/10/11 01:54:34;;;;;;;11.85;5.20;;;;;;;16.39;92.27;101456.03;4974237;28;96870;-28
2023/10/11 01:57:01;;;;;;;12.70;4.88;;;;;;;16.39;91.69;101450.56;4975235;28;99497;-28
2023/10/11 01:59:27;;;;;;;10.65;5.30;;;;;;;16.38;91.28;101451.56;4974011;28;100970;-28
2023/10/11 02:02:01;;;;;;;8.43;5.00;;;;;;;16.34;91.76;101441.84;4975726;28;97638;-28
2023/10/11 02:04:28;;;;;;;9.38;4.40;;;;;;;16.40;91.24;101440.47;4975521;28;97784;-27
2023/10/11 02:06:54;;;;;;;11.18;4.82;;;;;;;16.35;91.66;101440.84;4975188;28;100064;-28
2023/10/11 02:09:21;;;;;;;9.68;4.45;;;;;;;16.33;91.92;101431.91;4975628;28;99505;-27
2023/10/11 02:11:51;;;;;;;12.02;4.72;;;;;;;16.28;91.89;101415.84;4973994;28;96745;-27
2023/10/11 02:14:18;;;;;;;11.45;4.22;;;;;;;16.26;92.15;101425.16;4974159;28;96757;-28
2023/10/11 02:16:44;;;;;;;12.85;4.63;;;;;;;16.29;91.72;101417.56;4973188;28;100890;-27
2023/10/11 02:19:09;;;;;;;10.65;4.63;;;;;;;16.29;91.32;101420.31;4975152;28;97775;-27
2023/10/11 02:21:36;;;;;;;7.82;4.32;;;;;;;16.26;91.31;101426.03;4975544;28;96392;-27
2023/10/11 02:24:04;;;;;;;13.52;5.30;;;;;;;16.23;91.06;101417.16;4974003;28;96823;-27
2023/10/11 02:26:34;;;;;;;9.82;4.30;;;;;;;16.22;91.42;101415.44;4973571;28;99000;-29
2023/10/11 02:29:00;;;;;;;9.32;4.35;;;;;;;16.19;91.69;101421.16;4973568;28;101368;-28
2023/10/11 02:31:27;;;;;;;11.48;4.38;;;;;;;16.18;91.62;101419.38;4973838;28;96720;-28
2023/10/11 02:34:04;;;;;;;9.07;4.00;;;;;;;16.16;91.50;101419.53;4973835;28;96888;-27
2023/10/11 02:36:34;;;;;;;7.45;3.50;;;;;;;16.14;91.84;101426.97;4974787;28;99477;-27
2023/10/11 02:39:00;;;;;;;9.15;4.25;;;;;;;16.18;91.41;101425.72;4973456;28;100787;-28
2023/10/11 02:41:25;;;;;;;6.30;3.42;;;;;;;16.20;91.61;101431.94;4974728;28;96554;-27
2023/10/11 02:43:52;;;;;;;10.63;3.78;;;;;;;16.16;90.93;101415.91;4975196;28;96884;-28
2023/10/11 02:46:23;;;;;;;9.07;4.22;;;;;;;16.12;91.09;101424.34;4972605;28;101016;-29
2023/10/11 02:48:49;;;;;;;9.80;3.75;;;;;;;16.10;91.26;101423.56;4974953;28;97411;-28
2023/10/11 02:51:17;;;;;;;6.57;3.35;;;;;;;16.06;91.26;101432.97;4973636;28;96587;-28
2023/10/11 02:53:43;;;;;;;8.23;4.38;;;;;;;16.09;91.44;101427.31;4973502;28;96819;-28
2023/10/11 02:56:10;;;;;;;6.78;3.13;;;;;;;16.10;91.27;101439.97;4973134;28;100964;-28
2023/10/11 02:58:39;;;;;;;7.28;3.60;;;;;;;16.01;91.22;101417.94;4973610;28;100622;-28
2023/10/11 03:01:14;;;;;;;6.25;3.38;;;;;;;16.08;91.23;101430.16;4978996;28;96786;-29
2023/10/11 03:03:39;;;;;;;7.85;3.60;;;;;;;16.00;91.54;101413.47;4980169;28;96788;-27
2023/10/11 03:06:07;;;;;;;8.80;3.65;;;;;;;15.99;91.25;101408.97;4980793;28;97295;-27
2023/10/11 03:08:33;;;;;;;10.40;3.30;;;;;;;16.03;91.31;101416.81;4979615;28;100880;-27
2023/10/11 03:11:04;;;;;;;6.90;3.25;;;;;;;16.01;91.68;101415.19;4981227;28;96728;-28
2023/10/11 03:13:32;;;;;;;7.22;3.83;;;;;;;16.00;91.21;101413.47;4979984;28;96812;-28
2023/10/11 03:15:59;;;;;;;8.05;3.83;;;;;;;16.02;91.22;101422.44;4979630;28;100808;-28
2023/10/11 03:18:32;;;;;;;10.40;3.92;;;;;;;15.93;91.46;101407.59;4979688;28;99095;-27
2023/10/11 03:21:19;;;;;;;5.32;2.95;;;;;;;15.94;91.52;101403.84;4981173;28;96489;-28
2023/10/11 03:23:49;;;;;;;8.63;3.50;;;;;;;15.97;91.22;101409.13;4980142;28;96734;-28
2023/10/11 03:26:18;;;;;;;10.38;3.53;;;;;;;15.95;91.50;101402.88;4979409;28;100933;-27
2023/10/11 03:28:45;;;;;;;5.57;3.30;;;;;;;15.96;91.27;101420.16;4980872;28;99173;-28
2023/10/11 03:31:12;;;;;;;6.78;3.47;;;;;;;15.84;91.99;101402.81;4979216;28;96689;-28
2023/10/11 03:33:41;;;;;;;7.80;3.70;;;;;;;15.86;91.55;101406.31;4979770;28;96884;-28
2023/10/11 03:36:20;;;;;;;9.10;4.30;;;;;;;15.82;91.87;101410.25;4979432;28;101502;-28
2023/10/11 03:38:51;;;;;;;7.28;3.78;;;;;;;15.80;92.00;101415.84;4979525;28;101233;-27
2023/10/11 03:41:29;;;;;;;8.00;3.65;;;;;;;15.82;92.12;101407.50;4979806;28;96555;-27
2023/10/11 03:44:00;;;;;;;9.25;3.40;;;;;;;15.81;91.88;101397.59;4979407;28;96758;-28
2023/10/11 03:46:28;;;;;;;9.83;3.33;;;;;;;15.77;92.14;101386.00;4978607;28;101208;-28
2023/10/11 03:49:02;;;;;;;7.75;4.20;;;;;;;15.78;91.90;101379.56;4979280;28;101064;-28
2023/10/11 03:51:29;;;;;;;8.63;3.55;;;;;;;15.79;92.27;101399.56;4979484;28;96539;-28
2023/10/11 03:53:54;;;;;;;6.70;3.60;;;;;;;15.81;91.92;101392.13;4979613;28;96952;-30
2023/10/11 03:56:19;;;;;;;10.50;3.78;;;;;;;15.76;92.50;101389.72;4980005;28;98961;-28
2023/10/11 03:58:45;;;;;;;6.72;3.53;;;;;;;15.71;92.51;101389.22;4980683;28;97268;-28
2023/10/11 04:01:23;;;;;;;8.65;3.70;;;;;;;15.75;92.71;101396.16;4980750;28;96523;-29
2023/10/11 04:03:49;;;;;;;9.57;3.92;;;;;;;15.68;92.86;101384.81;4979432;28;96718;-27
2023/10/11 04:06:15;;;;;;;10.23;4.55;;;;;;;15.71;92.73;101386.47;4980582;28;97881;-28
2023/10/11 04:09:00;;;;;;;8.13;3.42;;;;;;;15.74;92.34;101382.66;4978845;28;100832;-28
2023/10/11 04:11:37;;;;;;;10.75;3.95;;;;;;;15.77;92.51;101386.00;4978259;28;96746;-28
2023/10/11 04:14:12;;;;;;;8.50;3.97;;;;;;;15.81;92.12;101387.53;4961421;28;96724;-28
2023/10/11 04:16:37;;;;;;;7.68;4.00;;;;;;;15.79;92.74;101388.63;4976840;28;99879;-28
2023/10/11 04:19:03;;;;;;;9.48;4.28;;;;;;;15.78;92.44;101386.88;4975537;28;100906;-28
2023/10/11 04:21:54;;;;;;;9.05;3.83;;;;;;;15.74;92.77;101382.66;4976838;28;96678;-30
2023/10/11 04:24:19;;;;;;;7.65;4.05;;;;;;;15.73;93.48;101387.25;4975636;28;97863;-28
2023/10/11 04:27:45;;;;;;;9.40;4.15;;;;;;;15.79;92.99;101385.91;4976889;28;97850;-29
2023/10/11 04:29:39;;;;;;;11.95;4.03;;;;;;;15.78;92.98;101376.84;4976774;28;98605;-28
2023/10/11 04:32:09;;;;;;;7.18;3.85;;;;;;;15.83;92.76;101384.69;4977086;28;96467;-27
2023/10/11 04:34:38;;;;;;;8.75;3.85;;;;;;;15.78;93.11;101382.31;4975457;28;96719;-28
2023/10/11 04:37:16;;;;;;;13.00;4.25;;;;;;;15.77;93.52;101382.41;4975334;28;101167;-27
2023/10/11 04:39:50;;;;;;;11.40;4.55;;;;;;;15.86;92.83;101398.09;4975715;28;100831;-28
2023/10/11 04:42:19;;;;;;;7.47;3.95;;;;;;;15.83;93.18;101385.56;4977115;28;96669;-28
2023/10/11 04:44:54;;;;;;;9.90;4.07;;;;;;;15.81;93.31;101397.59;4974723;28;96932;-27
2023/10/11 04:47:21;;;;;;;7.32;4.50;;;;;;;15.71;93.83;101394.66;4975826;28;99474;-27
2023/10/11 04:49:48;;;;;;;9.02;4.32;;;;;;;15.80;93.35;101415.84;4975101;28;101155;-29
2023/10/11 04:52:22;;;;;;;12.75;5.20;;;;;;;15.80;93.93;101406.75;4975243;28;96641;-28
2023/10/11 04:54:54;;;;;;;12.48;4.88;;;;;;;15.77;93.87;101385.13;5008837;28;96744;-28
2023/10/11 04:57:40;;;;;;;15.98;4.45;;;;;;;15.82;93.62;101391.13;4975106;28;101058;-27
2023/10/11 05:00:08;;;;;;;12.25;4.45;;;;;;;15.80;93.43;101385.78;4974821;28;101229;-27
2023/10/11 05:02:36;;;;;;;12.77;4.47;;;;;;;15.80;93.64;101393.09;4975190;28;96719;-27
2023/10/11 05:05:05;;;;;;;9.60;4.72;;;;;;;15.85;93.37;101389.03;4976811;28;96758;-28
2023/10/11 05:07:32;;;;;;;10.88;5.18;;;;;;;15.89;93.34;101400.59;4974776;28;101078;-28
2023/10/11 05:10:22;;;;;;;11.73;4.72;;;;;;;15.87;94.33;101397.09;4974718;28;100617;-28
2023/10/11 05:12:46;;;;;;;13.70;4.55;;;;;;;15.90;93.67;101402.38;4975809;28;96446;-28
2023/10/11 05:15:15;;;;;;;8.52;4.18;;;;;;;15.87;94.24;101400.75;4974853;28;96914;-27
2023/10/11 05:17:41;;;;;;;9.80;4.20;;;;;;;15.83;93.97;101390.16;4974579;28;98941;-28
2023/10/11 05:27:57;;;;;;;14.27;4.50;;;;;;;15.88;94.13;101401.59;4975979;28;97085;-28
2023/10/11 05:30:28;;;;;;;12.38;4.63;;;;;;;15.87;93.83;101388.91;4975920;28;99463;-28
2023/10/11 05:32:58;;;;;;;9.60;4.13;;;;;;;15.89;94.45;101390.53;4974581;28;96768;-28
2023/10/11 05:35:53;;;;;;;17.58;4.80;;;;;;;15.90;94.17;101386.84;4974540;28;96985;-27
2023/10/11 05:51:50;;;;;;;10.48;4.03;;;;;;;15.89;95.31;101359.63;4974050;28;97018;-28
2023/10/11 05:54:16;;;;;;;13.13;4.00;;;;;;;15.88;94.72;101355.16;4974385;28;96762;-32
2023/10/11 05:56:47;;;;;;;15.93;4.72;;;;;;;15.90;94.97;101355.91;4976205;28;96761;-28
2023/10/11 05:59:14;;;;;;;11.85;4.85;;;;;;;15.94;94.78;101373.81;4976005;28;96545;-28
2023/10/11 06:01:43;;;;;;;8.73;4.72;;;;;;;15.92;94.76;101370.31;4957688;28;100985;-27
2023/10/11 06:04:13;;;;;;;10.02;5.07;;;;;;;15.97;95.00;101379.06;4973580;28;96634;-27
2023/10/11 06:06:42;;;;;;;10.68;4.30;;;;;;;15.89;95.75;101374.16;4975811;28;96786;-27
2023/10/11 06:09:17;;;;;;;8.68;4.45;;;;;;;15.96;95.40;101395.56;4973756;28;99939;-28
2023/10/11 06:11:50;;;;;;;10.23;4.63;;;;;;;15.95;95.52;101404.75;4973790;28;101409;-27
2023/10/11 06:14:19;;;;;;;9.77;4.45;;;;;;;15.93;95.59;101404.84;4974162;28;96830;-27
2023/10/11 06:16:49;;;;;;;11.13;4.20;;;;;;;15.98;95.63;101408.09;4973940;28;96949;-27
2023/10/11 06:19:18;;;;;;;13.65;4.90;;;;;;;16.00;95.84;101406.13;4973661;28;101242;-27
2023/10/11 06:21:58;;;;;;;10.95;4.38;;;;;;;16.03;96.24;101416.81;4974059;28;100932;-28
2023/10/11 06:24:30;;;;;;;10.55;4.75;;;;;;;16.06;95.76;101415.72;4973999;28;96717;-28
2023/10/11 06:26:56;;;;;;;10.57;4.63;;;;;;;16.04;96.46;101424.06;4973928;28;96725;-28
2023/10/11 06:29:23;;;;;;;12.98;4.55;;;;;;;15.99;96.39;101411.72;4973106;28;100994;-28
2023/10/11 06:31:49;;;;;;;12.65;4.95;;;;;;;16.04;96.88;101418.59;4973547;28;100921;-29
2023/10/11 06:36:51;;;;;;;10.30;4.50;;;;;;;16.12;96.51;101423.47;4974243;28;96646;-27
2023/10/11 06:39:34;;;;;;;11.15;4.70;;;;;;;16.12;95.65;101421.59;4973387;28;101388;-28
2023/10/11 06:42:21;;;;;;;13.00;4.40;;;;;;;16.17;96.67;101413.06;4975013;28;98078;-28
2023/10/11 06:45:00;;;;;;;10.05;4.20;;;;;;;16.22;95.67;101415.44;4974480;28;96911;-27
2023/10/11 06:47:33;;;;;;;8.00;3.58;;;;;;;16.19;95.55;101411.06;4974163;28;96848;-27
2023/10/11 06:50:07;;;;;;;14.02;4.40;;;;;;;16.20;96.50;101407.34;4974504;28;99472;-27
2023/10/11 06:52:36;;;;;;;13.23;4.60;;;;;;;16.18;95.89;101401.13;4973366;28;100889;-27
2023/10/11 06:55:13;;;;;;;15.10;4.72;;;;;;;16.13;96.85;101387.81;4974458;28;96601;-28
2023/10/11 06:57:41;;;;;;;16.00;5.05;;;;;;;16.22;96.54;101404.50;4973632;28;96741;-28
2023/10/11 07:02:54;;;;;;;12.52;4.68;;;;;;;16.28;96.48;101404.00;4972034;28;97710;-28
2023/10/11 07:05:25;;;;;;;12.82;4.82;;;;;;;16.28;96.41;101404.00;4973548;28;96592;-28
2023/10/11 07:07:52;;;;;;;11.40;4.82;;;;;;;16.33;96.14;101424.56;4975173;28;96699;-28
2023/10/11 07:10:32;;;;;;;15.25;5.15;;;;;;;16.33;95.94;101429.16;4974792;28;97369;-27
2023/10/11 07:13:05;;;;;;;11.85;4.93;;;;;;;16.34;97.04;101436.38;4974548;28;99240;-28
2023/10/11 07:15:47;;;;;;;12.38;4.22;;;;;;;16.33;97.33;101432.78;4975136;28;96809;-27
2023/10/11 07:18:27;;;;;;;11.10;4.00;;;;;;;16.34;96.65;101429.03;4974962;28;96565;-28
2023/10/11 07:21:16;;;;;;;10.60;4.40;;;;;;;16.40;97.25;101441.38;4973976;28;99895;-27
2023/10/11 07:23:55;;;;;;;16.33;5.25;;;;;;;16.42;97.23;101452.19;4973992;28;97419;-27
2023/10/11 07:29:02;;;;;;;11.15;4.95;;;;;;;16.41;96.97;101451.31;4973636;28;96527;-28
2023/10/11 07:31:35;;;;;;;18.35;5.18;;;;;;;16.43;98.01;101446.59;4972842;28;100957;-28
2023/10/11 07:34:06;;;;;;;11.15;4.65;;;;;;;16.46;97.24;101442.75;4974091;28;99323;-27
2023/10/11 07:36:32;;;;;;;15.68;5.47;;;;;;;16.47;97.60;101445.38;4974734;28;96945;-28
2023/10/11 07:39:10;;;;;;;16.23;4.97;;;;;;;16.46;97.62;101438.16;4973418;28;96899;-28
2023/10/11 07:41:41;;;;;;;13.07;3.95;;;;;;;16.51;97.76;101446.88;4972744;28;101027;-27
2023/10/11 07:44:06;;;;;;;10.98;4.65;;;;;;;16.50;97.87;101442.41;4973727;28;99444;-27
2023/10/11 07:46:32;;;;;;;11.52;4.32;;;;;;;16.50;98.05;101439.66;4973774;28;96705;-27
2023/10/11 07:49:01;;;;;;;14.65;4.32;;;;;;;16.53;98.26;101449.50;4977578;28;96819;-28
2023/10/11 07:51:34;;;;;;;9.23;4.25;;;;;;;16.61;97.67;101452.50;4977414;28;98019;-27
2023/10/11 07:54:06;;;;;;;12.63;4.00;;;;;;;16.61;99.08;101457.09;4977603;28;97356;-27
2023/10/11 07:56:35;;;;;;;9.57;4.45;;;;;;;16.61;98.02;101452.50;4977604;28;96744;-30
2023/10/11 07:59:12;;;;;;;12.48;3.92;;;;;;;16.63;98.27;101455.13;4976157;28;96822;-28
2023/10/11 08:01:47;;;;;;;13.43;4.30;;;;;;;16.66;98.30;101463.09;4977309;28;99832;-27
2023/10/11 08:04:22;;;;;;;15.02;4.35;;;;;;;16.66;98.42;101468.56;4976279;28;100815;-28
2023/10/11 08:06:51;;;;;;;7.32;3.53;;;;;;;16.69;98.38;101465.59;4977772;28;96676;-27
2023/10/11 08:09:19;;;;;;;12.60;5.00;;;;;;;16.66;98.58;101466.72;4975992;28;96906;-28
2023/10/11 08:11:52;;;;;;;9.32;4.38;;;;;;;16.67;98.45;101473.06;4975151;28;101081;-28
2023/10/11 08:14:21;;;;;;;11.25;4.15;;;;;;;16.69;98.56;101479.28;4977065;28;98732;-28
2023/10/11 08:16:49;;;;;;;9.88;4.45;;;;;;;16.68;98.69;101467.44;4977245;28;96622;-28
2023/10/11 08:19:15;;;;;;;14.93;5.13;;;;;;;16.69;99.42;101465.59;4975747;28;96830;-28
2023/10/11 08:21:40;;;;;;;12.85;4.97;;;;;;;16.68;100.00;101472.91;4976814;28;97330;-28
2023/10/11 08:24:15;;;;;;;8.23;4.55;;;;;;;16.74;99.35;101474.31;4976923;28;97778;-27
2023/10/11 08:26:42;;;;;;;10.65;4.45;;;;;;;16.71;98.60;101469.97;4977177;28;96671;-28
2023/10/11 08:29:27;;;;;;;9.57;4.68;;;;;;;16.74;99.99;101466.13;4976159;28;96822;-28
2023/10/11 08:31:57;;;;;;;19.25;4.72;;;;;;;16.76;99.55;101473.22;4976660;28;99352;-28
2023/10/11 08:34:27;;;;;;;13.50;4.78;;;;;;;16.79;99.55;101471.28;4976506;28;99384;-27
2023/10/11 08:36:56;;;;;;;10.30;4.45;;;;;;;16.81;99.32;101482.97;4976835;28;96467;-27
2023/10/11 08:39:27;;;;;;;9.13;4.20;;;;;;;16.83;99.02;101476.38;4975663;28;96828;-28
2023/10/11 08:41:58;;;;;;;12.30;5.18;;;;;;;16.83;99.56;101486.44;4975204;28;101448;-29
2023/10/11 08:44:27;;;;;;;8.07;4.35;;;;;;;16.81;100.00;101486.56;4976564;28;97843;-27
2023/10/11 08:46:54;;;;;;;10.00;4.40;;;;;;;16.79;99.90;101477.59;4975001;28;96888;-28
2023/10/11 08:49:20;;;;;;;13.23;5.15;;;;;;;16.79;100.00;101457.59;4976807;28;96844;-27
2023/10/11 08:51:50;;;;;;;14.50;5.20;;;;;;;16.81;99.75;101467.41;4976441;28;97326;-27
2023/10/11 08:54:17;;;;;;;12.48;4.90;;;;;;;16.81;100.00;101456.47;4975369;28;101671;-28
2023/10/11 08:56:54;;;;;;;13.23;4.05;;;;;;;16.82;100.00;101450.00;4975322;28;96599;-27
2023/10/11 08:59:25;;;;;;;7.93;4.28;;;;;;;16.87;99.92;101466.91;4976030;28;96732;-27
2023/10/11 09:01:52;;;;;;;16.77;5.03;;;;;;;16.94;99.60;101467.31;4974761;28;101088;-27
2023/10/11 09:04:18;;;;;;;12.82;4.93;;;;;;;16.96;99.57;101466.19;4976146;28;97977;-28
2023/10/11 09:06:44;;;;;;;12.90;4.53;;;;;;;17.00;99.57;101461.38;4976717;28;96455;-27
2023/10/11 09:09:32;;;;;;;15.45;4.63;;;;;;;17.02;99.32;101459.41;4975125;28;96848;-28
2023/10/11 09:11:58;;;;;;;10.60;4.55;;;;;;;17.06;99.92;101470.97;4975874;28;99369;-27
2023/10/11 09:14:23;;;;;;;8.65;4.40;;;;;;;17.09;99.81;101473.44;4976065;28;99690;-27
2023/10/11 09:16:53;;;;;;;11.57;4.60;;;;;;;17.08;99.75;101460.75;4976552;28;96485;-28
2023/10/11 09:19:21;;;;;;;13.45;4.63;;;;;;;17.14;100.00;101460.28;4975441;28;96709;-28
2023/10/11 09:22:18;;;;;;;8.23;4.07;;;;;;;17.17;99.55;101463.63;4976021;28;98006;-28
2023/10/11 09:24:44;;;;;;;12.70;4.75;;;;;;;17.21;99.12;101461.53;4974480;28;100790;-28
2023/10/11 09:29:48;;;;;;;9.07;3.80;;;;;;;17.34;99.12;101491.53;4975121;28;96621;-28
2023/10/11 09:32:19;;;;;;;14.25;4.35;;;;;;;17.39;98.62;101487.44;4976001;28;98409;-27
2023/10/11 09:34:45;;;;;;;11.30;4.20;;;;;;;17.38;98.97;101485.69;4974126;28;100873;-27
2023/10/11 09:37:11;;;;;;;6.82;3.80;;;;;;;17.41;99.74;101488.19;4974569;28;96739;-28
2023/10/11 09:39:46;;;;;;;7.15;3.58;;;;;;;17.39;99.03;101495.66;4976046;28;96806;-27
2023/10/11 09:42:22;;;;;;;13.40;4.35;;;;;;;17.44;99.19;101503.50;4974387;28;101086;-28
2023/10/11 09:44:51;;;;;;;11.25;3.92;;;;;;;17.47;98.93;101502.38;4974969;28;99569;-27
2023/10/11 09:47:17;;;;;;;11.90;4.20;;;;;;;17.49;98.60;101501.25;4974319;28;96816;-28
2023/10/11 09:49:43;;;;;;;8.38;3.45;;;;;;;17.40;99.17;101485.59;4975692;28;96656;-28
2023/10/11 09:52:16;;;;;;;11.05;3.75;;;;;;;17.52;98.61;101500.13;4973476;28;100965;-27
2023/10/11 09:54:43;;;;;;;9.45;3.60;;;;;;;17.51;98.43;101498.41;4975287;28;99318;-29
2023/10/11 09:57:23;;;;;;;8.90;3.80;;;;;;;17.53;98.32;101504.63;4974420;28;96772;-28
2023/10/11 10:00:11;;;;;;;11.60;3.67;;;;;;;17.60;98.24;101492.19;4975794;28;96645;-28
2023/10/11 10:02:39;;;;;;;9.05;3.15;;;;;;;17.63;97.95;101476.34;4973961;28;100992;-27
2023/10/11 10:05:05;;;;;;;9.73;3.08;;;;;;;17.74;97.76;101483.72;4974005;28;101476;-28
2023/10/11 10:10:24;;;;;;;10.05;2.88;;;;;;;17.98;96.62;101489.06;4974873;28;96716;-27
2023/10/11 10:13:00;;;;;;;8.10;3.47;;;;;;;18.08;96.23;101497.41;4975303;28;97943;-28
2023/10/11 10:15:33;;;;;;;6.25;2.85;;;;;;;18.17;95.53;101493.03;4975144;28;98957;-27
2023/10/11 10:18:01;;;;;;;5.25;2.20;;;;;;;18.30;95.34;101491.00;4974778;28;96575;-27
2023/10/11 10:20:44;;;;;;;7.03;2.00;;;;;;;18.45;94.85;101489.72;4973846;28;96786;-27
2023/10/11 10:23:15;;;;;;;3.50;2.15;;;;;;;18.54;94.10;101489.91;4973696;28;101010;-28
2023/10/11 10:26:03;;;;;;;7.70;2.50;;;;;;;18.60;94.33;101478.44;4975264;28;98058;-27
2023/10/11 10:28:32;;;;;;;7.72;2.40;;;;;;;18.71;93.79;101472.00;4972801;28;96731;-29
2023/10/11 10:31:21;;;;;;;7.70;2.35;;;;;;;18.77;93.58;101479.75;4975295;28;96817;-27
2023/10/11 10:33:52;;;;;;;9.40;2.65;;;;;;;18.81;93.01;101482.13;4975087;28;97999;-27
2023/10/11 10:36:17;;;;;;;4.80;1.95;;;;;;;18.85;92.65;101480.84;4973800;28;101084;-27
2023/10/11 10:38:58;;;;;;;4.88;1.65;;;;;;;18.85;92.83;101460.75;4975407;28;96508;-28
2023/10/11 10:41:25;;;;;;;4.43;1.70;;;;;;;18.87;93.01;101458.72;4974999;28;96885;-27
2023/10/11 10:44:08;;;;;;;8.20;2.20;;;;;;;18.97;93.03;101445.06;4972693;28;101185;-28
2023/10/11 10:46:35;;;;;;;5.32;1.88;;;;;;;19.18;91.92;101442.31;4972782;28;101314;-29
2023/10/11 10:49:04;;;;;;;4.57;1.70;;;;;;;19.41;91.43;101446.63;4973719;28;96694;-28
2023/10/11 10:51:35;;;;;;;7.13;2.05;;;;;;;19.46;90.66;101429.75;4973751;28;96862;-27
2023/10/11 10:54:12;;;;;;;4.03;1.88;;;;;;;19.41;90.26;101440.28;4973282;28;100780;-28
2023/10/11 10:56:39;;;;;;;6.18;1.73;;;;;;;19.38;90.48;101455.16;4973486;28;99197;-28
2023/10/11 10:59:08;;;;;;;4.60;1.77;;;;;;;19.29;90.24;101447.75;4973598;28;96745;-28
2023/10/11 11:01:34;;;;;;;5.00;1.67;;;;;;;19.26;90.55;101431.53;4973844;28;96868;-27
2023/10/11 11:04:07;;;;;;;3.95;1.60;;;;;;;19.41;89.97;101419.16;4973285;28;100814;-27
2023/10/11 11:06:37;;;;;;;4.65;1.70;;;;;;;19.71;88.99;101422.91;4973231;28;101565;-27
2023/10/11 11:09:04;;;;;;;5.35;1.90;;;;;;;19.82;88.12;101430.19;4972917;28;96584;-27
2023/10/11 11:11:34;;;;;;;7.90;1.20;;;;;;;19.83;88.02;101420.91;4973455;28;96924;-29
2023/10/11 11:14:09;;;;;;;5.35;1.83;;;;;;;19.89;88.51;101412.97;4973037;28;100927;-28
2023/10/11 11:16:39;;;;;;;6.03;1.83;;;;;;;19.91;87.69;101399.97;4974393;28;97793;-27
2023/10/11 11:19:16;;;;;;;6.95;1.67;;;;;;;19.86;87.87;101423.41;4973335;28;96726;-28
2023/10/11 11:21:44;;;;;;;3.90;1.52;;;;;;;19.71;87.80;101429.28;4975515;28;96916;-27
2023/10/11 11:24:18;;;;;;;6.03;1.90;;;;;;;19.51;88.12;101405.47;4976329;28;100893;-27
2023/10/11 11:26:44;;;;;;;5.03;1.58;;;;;;;19.50;88.84;101410.09;4976729;28;101106;-27
2023/10/11 11:29:16;;;;;;;8.00;1.60;;;;;;;19.48;88.75;101406.59;4976592;28;96842;-27
2023/10/11 11:31:51;;;;;;;;;;;;;;;19.57;88.77;101410.41;4978611;28;96650;-27
2023/10/11 11:34:26;;;;;;;2.72;1.40;;;;;;;19.68;88.44;101398.47;4975890;28;100880;-27
2023/10/11 11:36:59;;;;;;;6.72;1.70;;;;;;;19.83;88.25;101394.31;4976355;28;101686;-27
2023/10/11 11:39:36;;;;;;;8.13;2.22;;;;;;;19.86;87.76;101394.03;4976582;28;96630;-27
2023/10/11 11:42:18;;;;;;;4.03;1.70;;;;;;;19.81;86.88;101389.97;4977921;28;96582;-27
2023/10/11 11:44:45;;;;;;;5.82;2.15;;;;;;;19.66;87.52;101386.69;4976998;28;98481;-27
2023/10/11 11:47:11;;;;;;;6.30;2.47;;;;;;;19.58;88.41;101392.03;4976055;28;101156;-29
2023/10/11 11:49:36;;;;;;;6.93;2.45;;;;;;;19.56;88.72;101407.78;4977734;28;96451;-27
2023/10/11 11:52:01;;;;;;;5.38;2.00;;;;;;;19.52;88.77;101408.06;4977978;28;96816;-28
2023/10/11 11:54:28;;;;;;;6.65;2.10;;;;;;;19.42;88.61;101403.53;4977191;28;99533;-28
2023/10/11 11:56:54;;;;;;;10.75;2.28;;;;;;;19.38;89.27;101397.47;4977323;28;97865;-28
2023/10/11 11:59:25;;;;;;;7.05;1.90;;;;;;;19.34;89.72;101403.38;4975761;28;96573;-27
2023/10/11 12:01:56;;;;;;;5.25;2.15;;;;;;;19.28;89.85;101404.78;4977500;28;96601;-27
2023/10/11 12:04:32;;;;;;;5.55;2.05;;;;;;;19.24;90.19;101408.81;4977241;28;99223;-27
2023/10/11 12:07:05;;;;;;;8.40;2.95;;;;;;;19.26;90.20;101413.16;4977199;28;97884;-27
2023/10/11 12:09:32;;;;;;;5.82;2.40;;;;;;;19.24;90.18;101404.19;4976181;28;96717;-27
2023/10/11 12:12:06;;;;;;;8.80;2.88;;;;;;;19.25;90.27;101399.56;4975863;28;96887;-28